createdAt,value
2022-11-09T00:01:52.794Z,96140.00
2022-11-09T00:04:49.613Z,96140.75
2022-11-09T00:07:46.440Z,96134.34
2022-11-09T00:10:43.248Z,96147.16
2022-11-09T00:13:42.841Z,96149.00
2022-11-09T00:16:39.638Z,96142.81
2022-11-09T00:19:36.714Z,96136.13
2022-11-09T00:22:33.524Z,96139.66
2022-11-09T00:25:30.763Z,96143.22
2022-11-09T00:28:27.574Z,96155.19
2022-11-09T00:31:25.222Z,96131.91
2022-11-09T00:34:22.043Z,96122.34
2022-11-09T00:37:18.924Z,96107.84
2022-11-09T00:40:16.119Z,96126.28
2022-11-09T00:43:13.020Z,96123.88
2022-11-09T00:46:09.848Z,96130.19
2022-11-09T00:49:06.859Z,96138.19
2022-11-09T00:52:03.763Z,96154.81
2022-11-09T00:55:00.684Z,96152.25
2022-11-09T00:57:57.508Z,96149.63
2022-11-09T01:00:56.245Z,96142.59
2022-11-09T01:03:53.122Z,96141.09
2022-11-09T01:06:49.981Z,96134.63
2022-11-09T01:09:46.818Z,96132.53
2022-11-09T01:12:43.638Z,96128.50
2022-11-09T01:15:53.772Z,96127.63
2022-11-09T01:18:57.134Z,96125.25
2022-11-09T01:21:53.939Z,96127.63
2022-11-09T01:24:50.764Z,96120.81
2022-11-09T01:27:47.567Z,96111.34
2022-11-09T01:30:44.410Z,96115.19
2022-11-09T01:33:41.862Z,96116.47
2022-11-09T01:36:38.677Z,96103.53
2022-11-09T01:39:35.583Z,96099.00
2022-11-09T01:42:37.255Z,96100.75
2022-11-09T01:45:34.088Z,96103.53
2022-11-09T01:48:38.953Z,96094.13
2022-11-09T01:51:52.108Z,96096.09
2022-11-09T01:54:57.257Z,96100.41
2022-11-09T01:58:10.017Z,96105.97
2022-11-09T02:01:11.197Z,96105.91
2022-11-09T02:04:14.555Z,96099.66
2022-11-09T02:07:11.758Z,96110.75
2022-11-09T02:10:34.019Z,96111.22
2022-11-09T02:13:32.101Z,96112.31
2022-11-09T02:16:30.040Z,96119.50
2022-11-09T02:19:27.191Z,96110.25
2022-11-09T02:22:24.096Z,96112.84
2022-11-09T02:25:20.993Z,96118.19
2022-11-09T02:28:18.008Z,96114.13
2022-11-09T02:31:17.287Z,96101.31
2022-11-09T02:34:18.002Z,96120.66
2022-11-09T02:37:48.572Z,96100.00
2022-11-09T02:40:51.904Z,96118.84
2022-11-09T02:43:51.698Z,96114.59
2022-11-09T02:46:48.541Z,96131.28
2022-11-09T02:49:45.346Z,96131.09
2022-11-09T02:52:42.264Z,96135.72
2022-11-09T02:55:39.069Z,96147.00
2022-11-09T02:58:35.953Z,96145.56
2022-11-09T03:01:32.850Z,96139.09
2022-11-09T03:04:29.751Z,96144.78
2022-11-09T03:07:26.835Z,96146.44
2022-11-09T03:10:23.702Z,96152.91
2022-11-09T03:13:20.913Z,96158.81
2022-11-09T03:16:17.927Z,96139.06
2022-11-09T03:19:14.941Z,96143.81
2022-11-09T03:22:11.776Z,96147.66
2022-11-09T03:25:09.081Z,96142.41
2022-11-09T03:28:08.629Z,96125.69
2022-11-09T03:31:05.817Z,96126.56
2022-11-09T03:34:02.631Z,96137.88
2022-11-09T03:36:59.557Z,96140.63
2022-11-09T03:39:56.361Z,96137.59
2022-11-09T03:42:53.245Z,96137.28
2022-11-09T03:45:50.138Z,96143.72
2022-11-09T03:48:46.972Z,96138.38
2022-11-09T03:51:43.815Z,96136.50
2022-11-09T03:54:40.621Z,96132.34
2022-11-09T03:57:37.497Z,96137.59
2022-11-09T04:00:35.837Z,96130.66
2022-11-09T04:03:32.639Z,96141.91
2022-11-09T04:06:29.547Z,96148.16
2022-11-09T04:09:26.435Z,96149.72
2022-11-09T04:12:23.312Z,96151.06
2022-11-09T04:15:20.315Z,96147.69
2022-11-09T04:18:17.480Z,96148.00
2022-11-09T04:21:14.356Z,96151.38
2022-11-09T04:24:11.164Z,96155.63
2022-11-09T04:27:08.014Z,96163.75
2022-11-09T04:30:05.586Z,96167.91
2022-11-09T04:33:04.113Z,96165.25
2022-11-09T04:36:05.521Z,96164.75
2022-11-09T04:39:02.403Z,96163.84
2022-11-09T04:41:59.236Z,96161.00
2022-11-09T04:44:56.054Z,96148.25
2022-11-09T04:47:59.030Z,96150.03
2022-11-09T04:51:05.146Z,96151.41
2022-11-09T04:54:01.988Z,96146.34
2022-11-09T04:56:58.791Z,96145.00
2022-11-09T04:59:55.860Z,96142.31
2022-11-09T05:02:53.153Z,96139.34
2022-11-09T05:05:49.957Z,96138.75
2022-11-09T05:08:46.788Z,96140.94
2022-11-09T05:11:43.628Z,96149.72
2022-11-09T05:14:40.452Z,96152.38
2022-11-09T05:17:37.305Z,96157.03
2022-11-09T05:20:36.180Z,96153.47
2022-11-09T05:23:51.559Z,96156.47
2022-11-09T05:26:48.605Z,96163.84
2022-11-09T05:29:45.658Z,96159.59
2022-11-09T05:32:42.484Z,96148.16
2022-11-09T05:35:39.391Z,96140.94
2022-11-09T05:38:36.272Z,96134.97
2022-11-09T05:41:33.162Z,96136.88
2022-11-09T05:44:30.587Z,96125.19
2022-11-09T05:47:27.458Z,96132.41
2022-11-09T05:50:24.390Z,96138.50
2022-11-09T05:53:21.669Z,96130.13
2022-11-09T05:56:18.867Z,96130.50
2022-11-09T05:59:15.683Z,96131.69
2022-11-09T06:02:12.574Z,96141.78
2022-11-09T06:05:10.100Z,96131.09
2022-11-09T06:08:13.615Z,96123.94
2022-11-09T06:11:15.740Z,96126.31
2022-11-09T06:14:18.690Z,96129.88
2022-11-09T06:17:15.781Z,96133.75
2022-11-09T06:20:12.624Z,96136.38
2022-11-09T06:23:09.540Z,96146.34
2022-11-09T06:26:11.638Z,96162.84
2022-11-09T06:29:10.050Z,96158.53
2022-11-09T06:32:06.990Z,96164.06
2022-11-09T06:35:04.211Z,96170.56
2022-11-09T06:38:01.633Z,96166.31
2022-11-09T06:40:59.895Z,96166.78
2022-11-09T06:43:56.765Z,96166.31
2022-11-09T06:46:53.592Z,96178.56
2022-11-09T06:49:50.420Z,96171.91
2022-11-09T06:52:47.535Z,96174.25
2022-11-09T06:55:50.197Z,96173.94
2022-11-09T06:58:47.977Z,96166.13
2022-11-09T07:01:44.846Z,96178.66
2022-11-09T07:04:41.749Z,96168.91
2022-11-09T07:07:38.610Z,96173.69
2022-11-09T07:10:35.520Z,96177.31
2022-11-09T07:13:32.619Z,96171.53
2022-11-09T07:16:31.305Z,96164.69
2022-11-09T07:19:31.763Z,96158.53
2022-11-09T07:22:28.832Z,96168.50
2022-11-09T07:25:27.205Z,96163.69
2022-11-09T07:28:24.139Z,96173.97
2022-11-09T07:31:21.470Z,96188.44
2022-11-09T07:34:18.269Z,96180.75
2022-11-09T07:37:15.108Z,96193.31
2022-11-09T07:40:12.752Z,96182.22
2022-11-09T07:43:11.706Z,96191.16
2022-11-09T07:46:09.132Z,96184.72
2022-11-09T07:49:06.643Z,96195.09
2022-11-09T07:52:03.707Z,96202.13
2022-11-09T07:55:03.774Z,96201.47
2022-11-09T07:58:07.717Z,96215.81
2022-11-09T08:01:09.955Z,96235.31
2022-11-09T08:04:06.868Z,96236.22
2022-11-09T08:07:03.733Z,96230.03
2022-11-09T08:10:00.576Z,96226.97
2022-11-09T08:13:04.858Z,96240.47
2022-11-09T08:16:03.015Z,96244.47
2022-11-09T08:18:59.833Z,96243.78
2022-11-09T08:21:58.046Z,96237.72
2022-11-09T08:24:54.954Z,96236.94
2022-11-09T08:27:51.887Z,96241.59
2022-11-09T08:31:00.442Z,96238.41
2022-11-09T08:33:57.754Z,96232.28
2022-11-09T08:36:54.584Z,96224.53
2022-11-09T08:39:51.482Z,96239.50
2022-11-09T08:42:48.717Z,96227.97
2022-11-09T08:45:45.633Z,96241.94
2022-11-09T08:48:42.604Z,96243.63
2022-11-09T08:51:40.137Z,96246.59
2022-11-09T08:54:37.136Z,96246.31
2022-11-09T08:57:34.426Z,96233.31
2022-11-09T09:00:31.561Z,96235.19
2022-11-09T09:03:28.867Z,96237.72
2022-11-09T09:06:30.642Z,96221.09
2022-11-09T09:09:28.303Z,96225.97
2022-11-09T09:12:25.321Z,96238.47
2022-11-09T09:15:23.536Z,96219.13
2022-11-09T09:18:20.828Z,96218.59
2022-11-09T09:21:18.490Z,96221.22
2022-11-09T09:24:15.500Z,96217.53
2022-11-09T09:27:12.358Z,96211.13
2022-11-09T09:30:09.791Z,96199.69
2022-11-09T09:33:07.172Z,96180.25
2022-11-09T09:36:05.060Z,96167.56
2022-11-09T09:39:02.199Z,96175.72
2022-11-09T09:42:04.876Z,96199.47
2022-11-09T09:45:18.037Z,96186.63
2022-11-09T09:48:48.891Z,96185.34
2022-11-09T09:51:53.158Z,96199.69
2022-11-09T09:55:11.645Z,96198.13
2022-11-09T09:58:19.264Z,96204.47
2022-11-09T10:01:20.714Z,96198.78
2022-11-09T10:04:37.799Z,96194.38
2022-11-09T10:07:47.933Z,96200.19
2022-11-09T10:11:06.995Z,96202.72
2022-11-09T10:14:34.413Z,96200.38
2022-11-09T10:17:50.367Z,96208.34
2022-11-09T10:21:26.448Z,96210.91
2022-11-09T10:25:23.779Z,96225.53
2022-11-09T10:28:17.262Z,96217.94
2022-11-09T10:31:19.743Z,96213.25
2022-11-09T10:35:03.720Z,96213.59
2022-11-09T10:38:00.583Z,96212.03
2022-11-09T10:41:20.278Z,96219.69
2022-11-09T10:44:19.608Z,96215.50
2022-11-09T10:47:18.167Z,96198.31
2022-11-09T10:50:27.812Z,96216.75
2022-11-09T10:53:31.384Z,96211.66
2022-11-09T10:56:32.960Z,96218.91
2022-11-09T10:59:54.639Z,96210.44
2022-11-09T11:02:55.548Z,96203.41
2022-11-09T11:05:58.771Z,96203.41
2022-11-09T11:08:58.222Z,96199.78
2022-11-09T11:12:20.493Z,96201.03
2022-11-09T11:15:25.519Z,96197.75
2022-11-09T11:18:27.349Z,96201.88
2022-11-09T11:21:26.166Z,96207.81
2022-11-09T11:24:23.309Z,96201.88
2022-11-09T11:27:35.517Z,96204.41
2022-11-09T11:30:37.426Z,96215.13
2022-11-09T11:33:34.637Z,96214.63
2022-11-09T11:37:06.656Z,96200.50
2022-11-09T11:40:19.158Z,96198.88
2022-11-09T11:43:35.611Z,96201.56
2022-11-09T11:46:55.200Z,96199.06
2022-11-09T11:50:27.357Z,96203.25
2022-11-09T11:54:02.244Z,96190.38
2022-11-09T11:57:25.264Z,96184.38
2022-11-09T12:00:22.365Z,96179.50
2022-11-09T12:03:50.914Z,96186.13
2022-11-09T12:07:23.856Z,96178.44
2022-11-09T12:10:58.695Z,96166.16
2022-11-09T12:14:35.466Z,96162.06
2022-11-09T12:17:41.104Z,96166.03
2022-11-09T12:21:05.112Z,96174.06
2022-11-09T12:24:26.124Z,96157.22
2022-11-09T12:27:35.135Z,96166.97
2022-11-09T12:31:01.560Z,96173.88
2022-11-09T12:34:14.967Z,96174.66
2022-11-09T12:37:24.067Z,96164.44
2022-11-09T12:40:32.686Z,96178.00
2022-11-09T12:44:16.909Z,96156.09
2022-11-09T12:47:22.527Z,96153.69
2022-11-09T12:50:23.467Z,96153.41
2022-11-09T12:53:23.774Z,96163.16
2022-11-09T12:56:27.203Z,96154.47
2022-11-09T12:59:26.943Z,96159.56
2022-11-09T13:02:39.069Z,96161.91
2022-11-09T13:05:38.659Z,96157.66
2022-11-09T13:08:37.200Z,96166.50
2022-11-09T13:11:50.626Z,96169.47
2022-11-09T13:14:47.618Z,96169.63
2022-11-09T13:18:45.933Z,96170.28
2022-11-09T13:21:42.910Z,96166.81
2022-11-09T13:25:26.045Z,96170.09
2022-11-09T13:28:28.928Z,96185.41
2022-11-09T13:32:12.568Z,96182.56
2022-11-09T13:35:41.037Z,96191.22
2022-11-09T13:38:38.454Z,96182.25
2022-11-09T13:41:44.357Z,96186.19
2022-11-09T13:44:43.349Z,96179.88
2022-11-09T13:47:51.789Z,96181.75
2022-11-09T13:50:57.198Z,96183.00
2022-11-09T13:54:02.352Z,96183.03
2022-11-09T13:57:03.415Z,96186.81
2022-11-09T14:00:02.171Z,96200.03
2022-11-09T14:03:22.588Z,96187.75
2022-11-09T14:06:19.739Z,96180.16
2022-11-09T14:09:20.219Z,96190.41
2022-11-09T14:12:23.331Z,96192.78
2022-11-09T14:15:41.932Z,96189.63
2022-11-09T14:18:51.758Z,96197.81
2022-11-09T14:21:52.448Z,96198.78
2022-11-09T14:24:49.823Z,96199.72
2022-11-09T14:27:51.290Z,96200.50
2022-11-09T14:30:48.128Z,96201.16
2022-11-09T14:34:02.493Z,96201.63
2022-11-09T14:37:04.559Z,96193.56
2022-11-09T14:40:03.241Z,96200.50
2022-11-09T14:43:23.605Z,96198.78
2022-11-09T14:46:27.436Z,96204.63
2022-11-09T14:49:28.918Z,96198.78
2022-11-09T14:52:30.955Z,96206.38
2022-11-09T14:55:28.503Z,96209.66
2022-11-09T14:58:27.246Z,96212.53
2022-11-09T15:01:27.061Z,96208.88
2022-11-09T15:04:24.642Z,96214.56
2022-11-09T15:07:32.751Z,96212.53
2022-11-09T15:10:32.447Z,96209.19
2022-11-09T15:13:35.210Z,96204.63
2022-11-09T15:16:32.263Z,96205.88
2022-11-09T15:19:30.676Z,96207.47
2022-11-09T15:22:54.604Z,96205.41
2022-11-09T15:25:55.835Z,96200.84
2022-11-09T15:28:52.758Z,96201.16
2022-11-09T15:32:02.475Z,96200.22
2022-11-09T15:34:59.989Z,96194.53
2022-11-09T15:37:56.999Z,96203.84
2022-11-09T15:40:53.810Z,96201.34
2022-11-09T15:43:50.872Z,96204.63
2022-11-09T15:46:52.170Z,96208.09
2022-11-09T15:49:49.403Z,96212.06
2022-11-09T15:52:46.417Z,96219.59
2022-11-09T15:55:43.390Z,96214.25
2022-11-09T15:58:40.260Z,96214.56
2022-11-09T16:01:37.634Z,96229.53
2022-11-09T16:04:34.530Z,96223.41
2022-11-09T16:07:31.633Z,96229.06
2022-11-09T16:10:30.400Z,96225.47
2022-11-09T16:13:27.237Z,96242.00
2022-11-09T16:16:30.535Z,96226.25
2022-11-09T16:19:27.692Z,96238.22
2022-11-09T16:22:29.509Z,96245.16
2022-11-09T16:25:27.613Z,96242.47
2022-11-09T16:28:24.576Z,96252.09
2022-11-09T16:31:40.972Z,96255.25
2022-11-09T16:34:38.351Z,96249.72
2022-11-09T16:37:39.929Z,96269.59
2022-11-09T16:40:38.351Z,96265.34
2022-11-09T16:43:37.465Z,96268.16
2022-11-09T16:46:34.734Z,96267.38
2022-11-09T16:49:32.235Z,96265.00
2022-11-09T16:52:29.101Z,96262.81
2022-11-09T16:55:26.252Z,96265.97
2022-11-09T16:58:23.884Z,96265.03
2022-11-09T17:01:23.460Z,96268.78
2022-11-09T17:04:22.241Z,96269.91
2022-11-09T17:07:20.478Z,96275.91
2022-11-09T17:10:17.457Z,96289.56
2022-11-09T17:13:14.568Z,96282.66
2022-11-09T17:16:13.865Z,96282.97
2022-11-09T17:19:13.629Z,96291.16
2022-11-09T17:22:10.575Z,96296.22
2022-11-09T17:25:08.090Z,96306.28
2022-11-09T17:28:06.187Z,96298.25
2022-11-09T17:31:18.052Z,96298.69
2022-11-09T17:34:16.428Z,96307.38
2022-11-09T17:37:13.393Z,96311.63
2022-11-09T17:40:10.758Z,96314.63
2022-11-09T17:43:07.737Z,96321.88
2022-11-09T17:46:11.219Z,96319.81
2022-11-09T17:49:10.319Z,96314.94
2022-11-09T17:52:07.399Z,96322.63
2022-11-09T17:55:04.522Z,96327.97
2022-11-09T17:58:01.359Z,96329.91
2022-11-09T18:01:13.775Z,96336.69
2022-11-09T18:04:11.536Z,96343.09
2022-11-09T18:07:08.442Z,96333.34
2022-11-09T18:10:06.040Z,96331.13
2022-11-09T18:13:03.479Z,96338.69
2022-11-09T18:16:06.903Z,96335.22
2022-11-09T18:19:05.307Z,96339.00
2022-11-09T18:22:03.125Z,96339.59
2022-11-09T18:25:00.590Z,96347.66
2022-11-09T18:27:57.559Z,96337.88
2022-11-09T18:31:01.456Z,96351.09
2022-11-09T18:33:58.318Z,96351.03
2022-11-09T18:36:55.202Z,96356.47
2022-11-09T18:39:52.039Z,96361.56
2022-11-09T18:42:48.885Z,96344.22
2022-11-09T18:45:54.083Z,96358.41
2022-11-09T18:48:53.314Z,96360.34
2022-11-09T18:51:50.133Z,96374.63
2022-11-09T18:54:47.143Z,96367.38
2022-11-09T18:57:44.022Z,96369.00
2022-11-09T19:00:41.792Z,96385.78
2022-11-09T19:03:38.605Z,96379.94
2022-11-09T19:06:35.637Z,96385.06
2022-11-09T19:09:37.101Z,96383.13
2022-11-09T19:12:34.002Z,96386.94
2022-11-09T19:15:35.134Z,96388.31
2022-11-09T19:18:32.520Z,96392.59
2022-11-09T19:21:50.747Z,96395.09
2022-11-09T19:24:47.741Z,96399.97
2022-11-09T19:27:46.761Z,96389.75
2022-11-09T19:30:43.595Z,96393.03
2022-11-09T19:33:40.503Z,96403.44
2022-11-09T19:36:38.342Z,96400.28
2022-11-09T19:39:38.047Z,96407.34
2022-11-09T19:42:37.635Z,96404.47
2022-11-09T19:45:39.387Z,96410.56
2022-11-09T19:48:36.589Z,96420.06
2022-11-09T19:51:34.853Z,96415.19
2022-11-09T19:54:31.688Z,96421.44
2022-11-09T19:57:28.591Z,96421.59
2022-11-09T20:00:25.516Z,96418.13
2022-11-09T20:03:22.337Z,96425.94
2022-11-09T20:06:20.553Z,96429.09
2022-11-09T20:09:17.400Z,96432.22
2022-11-09T20:12:32.688Z,96438.53
2022-11-09T20:15:29.524Z,96446.97
2022-11-09T20:18:26.439Z,96440.06
2022-11-09T20:21:23.347Z,96454.34
2022-11-09T20:24:20.273Z,96451.19
2022-11-09T20:27:17.150Z,96456.03
2022-11-09T20:30:15.108Z,96457.13
2022-11-09T20:33:11.953Z,96447.72
2022-11-09T20:36:09.447Z,96456.66
2022-11-09T20:39:06.283Z,96462.69
2022-11-09T20:42:03.185Z,96464.28
2022-11-09T20:45:00.092Z,96472.00
2022-11-09T20:48:10.503Z,96485.19
2022-11-09T20:51:18.793Z,96482.31
2022-11-09T20:54:15.733Z,96482.31
2022-11-09T20:57:12.740Z,96488.06
2022-11-09T21:00:10.631Z,96486.22
2022-11-09T21:03:08.634Z,96489.25
2022-11-09T21:06:07.536Z,96494.41
2022-11-09T21:09:05.620Z,96496.69
2022-11-09T21:12:21.041Z,96499.38
2022-11-09T21:15:17.945Z,96496.38
2022-11-09T21:18:15.023Z,96500.94
2022-11-09T21:21:19.484Z,96497.97
2022-11-09T21:24:34.566Z,96509.47
2022-11-09T21:27:50.115Z,96515.13
2022-11-09T21:30:46.968Z,96521.75
2022-11-09T21:33:43.803Z,96521.56
2022-11-09T21:36:43.535Z,96520.47
2022-11-09T21:39:41.193Z,96527.72
2022-11-09T21:42:38.004Z,96523.44
2022-11-09T21:45:34.842Z,96534.25
2022-11-09T21:48:32.012Z,96535.81
2022-11-09T21:51:28.841Z,96539.19
2022-11-09T21:54:25.928Z,96548.91
2022-11-09T21:57:22.761Z,96543.28
2022-11-09T22:00:19.630Z,96542.47
2022-11-09T22:03:16.450Z,96550.22
2022-11-09T22:06:14.679Z,96547.81
2022-11-09T22:09:17.991Z,96556.13
2022-11-09T22:12:33.429Z,96560.69
2022-11-09T22:15:53.320Z,96564.69
2022-11-09T22:19:09.161Z,96564.78
2022-11-09T22:22:05.974Z,96579.75
2022-11-09T22:25:03.173Z,96584.78
2022-11-09T22:28:00.483Z,96581.13
2022-11-09T22:31:00.869Z,96580.22
2022-11-09T22:33:57.745Z,96584.28
2022-11-09T22:36:54.578Z,96595.78
2022-11-09T22:39:51.450Z,96598.47
2022-11-09T22:42:48.250Z,96597.06
2022-11-09T22:45:45.336Z,96606.00
2022-11-09T22:48:44.245Z,96611.34
2022-11-09T22:51:41.083Z,96610.66
2022-11-09T22:54:38.026Z,96618.69
2022-11-09T22:57:37.051Z,96613.81
2022-11-09T23:00:33.889Z,96621.97
2022-11-09T23:03:30.720Z,96623.84
2022-11-09T23:06:27.630Z,96629.81
2022-11-09T23:09:24.476Z,96628.50
2022-11-09T23:12:21.314Z,96639.31
2022-11-09T23:15:18.161Z,96638.41
2022-11-09T23:18:33.313Z,96645.03
2022-11-09T23:21:36.308Z,96660.28
2022-11-09T23:24:51.706Z,96666.72
2022-11-09T23:27:52.600Z,96662.47
2022-11-09T23:30:49.449Z,96661.09
2022-11-09T23:33:48.337Z,96660.78
2022-11-09T23:36:45.193Z,96667.81
2022-11-09T23:39:42.012Z,96673.38
2022-11-09T23:42:38.824Z,96677.44
2022-11-09T23:45:38.019Z,96684.16
2022-11-09T23:48:35.123Z,96688.69
2022-11-09T23:51:31.953Z,96690.81
2022-11-09T23:54:28.767Z,96698.91
2022-11-09T23:57:25.589Z,96699.38
